there are no active watches, warnings or advisories



my webcam  My webcam


visit our other weather sites:

Template documentation
and downloads

And another site




nearby metar reports

   
KAHN - Athens Airport, GA
distance from station: e 35 mi
updated: May 27 2022 5:51 pm
few clouds  
few clouds  
   wind: wsw 9.2 mph<br />Gust to 9.2 mph
wind: wsw 9.2 mph
Gust to 9.2 mph
temperature: 82.4°F
heat index: 82.4°F
dew point: 55.4°F
humidity: 40%
barometer: 29.83 inHg
clouds: Few Clouds
visibility: 10 mi
cloud details: few clouds 6000 ft
KAHN 272151Z 25008G19KT 10SM FEW060 28/13 A2983 RMK AO2 SLP095 T02780133
KBGE - Brainbridge Airport, GA
distance from station: ssw 180 mi
updated: May 27 2022 5:55 pm
partly cloudy  
partly cloudy  
   wind: wsw 12.7 mph
wind: wsw 12.7 mph
temperature: 87.8°F
heat index: 87.8°F
dew point: 60.8°F
humidity: 40%
barometer: 29.87 inHg
clouds: Partly Cloudy
visibility: 10 mi
cloud details: partly cloudy 6500 ft,
partly cloudy 8000 ft
KBGE 272155Z AUTO 24011KT 10SM SCT065 SCT080 31/16 A2987 RMK AO2 T03070164
KSSI - Brunswick Airport, GA
distance from station: se 209 mi
updated: May 27 2022 5:53 pm
Nearby Thunderstorm, mostly cloudy  
Nearby Thunderstorm, mostly cloudy  
   wind: south 10.4 mph<br />Gust to 10.4 mph
wind: south 10.4 mph
Gust to 10.4 mph
temperature: 77°F
dew point: 71.6°F
humidity: 83%
barometer: 29.9 inHg
clouds: Mostly Cloudy
visibility: 10 mi
cloud details: few clouds 1100 ft,
few clouds 7000 ft,
mostly cloudy 10000 ft
KSSI 272153Z AUTO 19009G20KT 10SM VCTS FEW011 FEW070 BKN100 25/22 A2990 RMK AO2 LTG DSNT NE AND SE AND NW SLP127 T02500217
KCSG - Columbus Airport, GA
distance from station: sw 92 mi
updated: May 27 2022 5:51 pm
clear  
clear  
   wind: wnw 16.1 mph<br />Gust to 16.1 mph
wind: wnw 16.1 mph
Gust to 16.1 mph
temperature: 84.2°F
dew point: 51.8°F
humidity: 33%
barometer: 29.85 inHg
clouds: Clear
visibility: 10 mi
cloud details: clear ft
KCSG 272151Z 29014G21KT 10SM CLR 29/11 A2985 RMK AO2 SLP103 T02890111
KGVL - Gainsville Airport, GA
distance from station: n 30 mi
updated: May 27 2022 5:53 pm
clear  
clear  
   wind: west 13.8 mph<br />Gust to 13.8 mph
wind: west 13.8 mph
Gust to 13.8 mph
temperature: 78.8°F
dew point: 53.6°F
humidity: 42%
barometer: 29.88 inHg
clouds: Clear
visibility: 10 mi
cloud details: clear ft
KGVL 272153Z AUTO 27012G21KT 10SM CLR 26/12 A2988 RMK AO2 SLP103 T02610122
KRMG - Rome Airport, GA
distance from station: nw 60 mi
updated: May 27 2022 5:53 pm
mostly cloudy  
mostly cloudy  
   wind: nw 10.4 mph<br />Gust to 10.4 mph
wind: nw 10.4 mph
Gust to 10.4 mph
temperature: 78.8°F
dew point: 55.4°F
humidity: 45%
barometer: 29.88 inHg
clouds: Mostly Cloudy
visibility: 10 mi
cloud details: mostly cloudy 6500 ft
KRMG 272153Z AUTO 32009G16KT 10SM BKN065 26/13 A2988 RMK AO2 SLP108 T02610128
KSAV - Savannah Airport, GA
distance from station: se 183 mi
updated: May 27 2022 5:53 pm
mostly cloudy  
mostly cloudy  
   wind: south 12.7 mph
wind: south 12.7 mph
temperature: 80.6°F
heat index: 84.2°F
dew point: 71.6°F
humidity: 74%
barometer: 29.87 inHg
clouds: Mostly Cloudy
visibility: 10 mi
cloud details: few clouds 1400 ft,
partly cloudy 10000 ft,
mostly cloudy 14000 ft
KSAV 272153Z 19011KT 10SM FEW014 SCT100 BKN140 27/22 A2987 RMK AO2 SLP115 CB DSNT S MOV E T02670217 $
KVLD - Valdosta Airport, GA
distance from station: s 185 mi
updated: May 27 2022 5:53 pm
clear  
clear  
   wind: varies 3.5 mph
wind: varies 3.5 mph
temperature: 87.8°F
heat index: 87.8°F
dew point: 60.8°F
humidity: 40%
barometer: 29.87 inHg
clouds: Clear
visibility: 10 mi
cloud details: clear ft
KVLD 272153Z AUTO VRB03KT 10SM CLR 31/16 A2987 RMK AO2 SLP122 T03110156
KWRB - Warner Robins Airport, GA
distance from station: sse 78 mi
updated: May 27 2022 5:56 pm
mostly cloudy  
mostly cloudy  
   wind: wsw 10.4 mph
wind: wsw 10.4 mph
temperature: 86°F
heat index: 87.8°F
dew point: 62.6°F
humidity: 46%
barometer: 29.83 inHg
clouds: Mostly Cloudy
visibility: 10 mi
cloud details: few clouds 6500 ft,
mostly cloudy 11000 ft
KWRB 272156Z AUTO 25009KT 10SM FEW065 BKN110 30/17 A2983 RMK AO2 SLP101 T02960167

script developed by  Saratoga-weather.org adapted for the template by  Weerstation Leuven

equipment we use:

weather-station
Davis VP2 weatherstation

weather-program
WeatherLink

weather-server
My Computer

provider
My provider

Davis VP2 weatherstation

WeatherLink

My Computer

My provider